sensor_id;sensor_type;location;lat;lon;timestamp;pressure;altitude;pressure_sealevel;temperature;humidity
12801;BME280;6464;42.494;27.470;2023-11-18T00:02:11;96454.69;;;10.87;100.00
12801;BME280;6464;42.494;27.470;2023-11-18T00:04:42;96645.75;;;12.14;100.00
12801;BME280;6464;42.494;27.470;2023-11-18T00:07:16;96718.16;;;12.21;100.00
12801;BME280;6464;42.494;27.470;2023-11-18T00:09:44;96674.78;;;12.04;100.00
12801;BME280;6464;42.494;27.470;2023-11-18T00:12:20;96530.50;;;10.74;100.00
12801;BME280;6464;42.494;27.470;2023-11-18T00:15:01;96517.88;;;10.77;100.00
12801;BME280;6464;42.494;27.470;2023-11-18T00:17:39;96475.44;;;10.71;100.00
12801;BME280;6464;42.494;27.470;2023-11-18T00:20:17;96499.13;;;11.11;100.00
12801;BME280;6464;42.494;27.470;2023-11-18T00:22:55;96581.00;;;11.10;100.00
12801;BME280;6464;42.494;27.470;2023-11-18T00:25:31;96663.34;;;11.94;100.00
12801;BME280;6464;42.494;27.470;2023-11-18T00:28:05;96466.25;;;11.05;100.00
12801;BME280;6464;42.494;27.470;2023-11-18T00:30:38;96438.50;;;11.11;100.00
12801;BME280;6464;42.494;27.470;2023-11-18T00:33:07;96477.13;;;11.22;100.00
12801;BME280;6464;42.494;27.470;2023-11-18T00:35:39;96382.25;;;10.72;100.00
12801;BME280;6464;42.494;27.470;2023-11-18T00:38:08;96513.44;;;11.97;100.00
12801;BME280;6464;42.494;27.470;2023-11-18T00:40:39;96341.13;;;11.00;100.00
12801;BME280;6464;42.494;27.470;2023-11-18T00:43:10;96451.88;;;11.77;100.00
12801;BME280;6464;42.494;27.470;2023-11-18T00:45:41;96449.25;;;11.97;100.00
12801;BME280;6464;42.494;27.470;2023-11-18T00:48:09;96348.88;;;11.21;100.00
12801;BME280;6464;42.494;27.470;2023-11-18T00:50:36;96404.25;;;11.69;100.00
12801;BME280;6464;42.494;27.470;2023-11-18T00:53:05;96403.56;;;11.57;100.00
12801;BME280;6464;42.494;27.470;2023-11-18T00:55:33;96431.34;;;11.42;100.00
12801;BME280;6464;42.494;27.470;2023-11-18T00:58:00;96314.91;;;10.79;100.00
12801;BME280;6464;42.494;27.470;2023-11-18T01:00:29;96397.16;;;11.60;100.00
12801;BME280;6464;42.494;27.470;2023-11-18T01:02:56;96300.34;;;10.75;100.00
12801;BME280;6464;42.494;27.470;2023-11-18T01:05:23;96461.78;;;11.85;100.00
12801;BME280;6464;42.494;27.470;2023-11-18T01:07:50;96358.59;;;11.11;100.00
12801;BME280;6464;42.494;27.470;2023-11-18T01:10:18;96311.53;;;10.58;100.00
12801;BME280;6464;42.494;27.470;2023-11-18T01:12:45;96360.97;;;10.94;100.00
12801;BME280;6464;42.494;27.470;2023-11-18T01:15:12;96409.81;;;11.56;100.00
12801;BME280;6464;42.494;27.470;2023-11-18T01:17:41;96345.84;;;11.06;100.00
12801;BME280;6464;42.494;27.470;2023-11-18T01:20:09;96377.63;;;11.43;100.00
12801;BME280;6464;42.494;27.470;2023-11-18T01:22:37;96433.56;;;11.56;100.00
12801;BME280;6464;42.494;27.470;2023-11-18T01:25:06;96339.47;;;11.38;100.00
12801;BME280;6464;42.494;27.470;2023-11-18T01:27:34;96442.88;;;11.70;100.00
12801;BME280;6464;42.494;27.470;2023-11-18T01:30:02;96450.63;;;11.72;100.00
12801;BME280;6464;42.494;27.470;2023-11-18T01:32:34;96299.22;;;10.97;100.00
12801;BME280;6464;42.494;27.470;2023-11-18T01:35:14;96236.97;;;10.67;100.00
12801;BME280;6464;42.494;27.470;2023-11-18T01:37:43;96372.91;;;11.37;100.00
12801;BME280;6464;42.494;27.470;2023-11-18T01:40:11;96338.47;;;11.48;100.00
12801;BME280;6464;42.494;27.470;2023-11-18T01:42:41;96324.06;;;11.33;100.00
12801;BME280;6464;42.494;27.470;2023-11-18T01:45:09;96367.19;;;11.71;100.00
12801;BME280;6464;42.494;27.470;2023-11-18T01:47:37;96350.09;;;11.55;100.00
12801;BME280;6464;42.494;27.470;2023-11-18T01:50:08;96344.00;;;11.45;100.00
12801;BME280;6464;42.494;27.470;2023-11-18T01:52:37;96250.28;;;10.94;100.00
12801;BME280;6464;42.494;27.470;2023-11-18T01:55:05;96249.72;;;11.00;100.00
12801;BME280;6464;42.494;27.470;2023-11-18T01:57:34;96330.97;;;11.44;100.00
12801;BME280;6464;42.494;27.470;2023-11-18T04:10:18;97400.25;;;8.49;100.00
12801;BME280;6464;42.494;27.470;2023-11-18T04:13:00;97557.66;;;9.22;100.00
12801;BME280;6464;42.494;27.470;2023-11-18T04:15:32;97442.91;;;8.94;100.00
12801;BME280;6464;42.494;27.470;2023-11-18T04:18:20;97470.47;;;8.46;100.00
12801;BME280;6464;42.494;27.470;2023-11-18T04:21:08;97487.53;;;8.82;100.00
12801;BME280;6464;42.494;27.470;2023-11-18T04:23:42;97401.75;;;8.11;100.00
12801;BME280;6464;42.494;27.470;2023-11-18T04:26:33;97434.28;;;8.08;100.00
12801;BME280;6464;42.494;27.470;2023-11-18T04:29:08;97476.88;;;7.97;100.00
12801;BME280;6464;42.494;27.470;2023-11-18T04:31:37;97440.16;;;7.69;100.00
12801;BME280;6464;42.494;27.470;2023-11-18T04:34:10;97600.94;;;8.60;100.00
12801;BME280;6464;42.494;27.470;2023-11-18T04:36:42;97604.91;;;8.53;100.00
12801;BME280;6464;42.494;27.470;2023-11-18T04:39:15;97436.25;;;7.46;100.00
12801;BME280;6464;42.494;27.470;2023-11-18T04:42:00;97512.38;;;7.59;100.00
12801;BME280;6464;42.494;27.470;2023-11-18T04:44:34;97686.38;;;8.81;100.00
12801;BME280;6464;42.494;27.470;2023-11-18T04:47:04;97583.78;;;7.80;100.00
12801;BME280;6464;42.494;27.470;2023-11-18T04:49:32;97758.59;;;8.74;100.00
12801;BME280;6464;42.494;27.470;2023-11-18T04:52:00;97638.63;;;8.44;100.00
12801;BME280;6464;42.494;27.470;2023-11-18T04:54:32;97697.84;;;8.64;100.00
12801;BME280;6464;42.494;27.470;2023-11-18T04:57:06;97701.16;;;8.68;100.00
12801;BME280;6464;42.494;27.470;2023-11-18T05:00:20;97594.84;;;8.15;100.00
12801;BME280;6464;42.494;27.470;2023-11-18T05:03:05;97692.84;;;8.30;100.00
12801;BME280;6464;42.494;27.470;2023-11-18T05:05:49;97635.94;;;8.30;100.00
12801;BME280;6464;42.494;27.470;2023-11-18T05:08:22;97726.69;;;8.66;100.00
12801;BME280;6464;42.494;27.470;2023-11-18T05:10:54;97586.44;;;7.94;100.00
12801;BME280;6464;42.494;27.470;2023-11-18T05:13:35;97689.91;;;8.66;100.00
12801;BME280;6464;42.494;27.470;2023-11-18T05:16:06;97611.25;;;7.88;100.00
12801;BME280;6464;42.494;27.470;2023-11-18T05:18:37;97612.31;;;8.00;100.00
12801;BME280;6464;42.494;27.470;2023-11-18T05:21:08;97581.38;;;7.91;100.00
12801;BME280;6464;42.494;27.470;2023-11-18T05:24:14;97691.75;;;8.64;100.00
12801;BME280;6464;42.494;27.470;2023-11-18T05:26:49;97707.78;;;8.59;100.00
12801;BME280;6464;42.494;27.470;2023-11-18T05:29:26;97531.47;;;7.15;100.00
12801;BME280;6464;42.494;27.470;2023-11-18T05:32:20;97619.38;;;7.68;100.00
12801;BME280;6464;42.494;27.470;2023-11-18T05:34:52;97759.50;;;8.27;100.00
12801;BME280;6464;42.494;27.470;2023-11-18T05:37:46;97719.19;;;8.44;100.00
12801;BME280;6464;42.494;27.470;2023-11-18T05:40:16;97570.34;;;7.54;100.00
12801;BME280;6464;42.494;27.470;2023-11-18T05:42:47;97566.72;;;7.57;100.00
12801;BME280;6464;42.494;27.470;2023-11-18T05:45:21;97782.38;;;8.57;100.00
12801;BME280;6464;42.494;27.470;2023-11-18T05:48:22;97787.19;;;8.48;100.00
12801;BME280;6464;42.494;27.470;2023-11-18T05:51:00;97748.94;;;8.13;100.00
12801;BME280;6464;42.494;27.470;2023-11-18T05:53:47;97834.88;;;8.41;100.00
12801;BME280;6464;42.494;27.470;2023-11-18T06:26:15;97793.13;;;8.05;100.00
12801;BME280;6464;42.494;27.470;2023-11-18T06:28:46;97878.50;;;8.28;100.00
12801;BME280;6464;42.494;27.470;2023-11-18T06:31:25;97710.22;;;7.37;100.00
12801;BME280;6464;42.494;27.470;2023-11-18T06:34:29;97792.28;;;8.20;100.00
12801;BME280;6464;42.494;27.470;2023-11-18T06:37:00;97658.38;;;7.27;100.00
12801;BME280;6464;42.494;27.470;2023-11-18T06:39:53;97800.59;;;8.12;100.00
12801;BME280;6464;42.494;27.470;2023-11-18T06:43:05;97816.41;;;8.11;100.00
12801;BME280;6464;42.494;27.470;2023-11-18T06:45:51;97591.00;;;6.64;100.00
12801;BME280;6464;42.494;27.470;2023-11-18T06:48:27;97740.81;;;7.70;100.00
12801;BME280;6464;42.494;27.470;2023-11-18T06:51:08;97651.59;;;7.07;100.00
12801;BME280;6464;42.494;27.470;2023-11-18T06:53:37;97659.44;;;7.07;100.00
12801;BME280;6464;42.494;27.470;2023-11-18T06:56:08;97605.91;;;6.62;100.00
12801;BME280;6464;42.494;27.470;2023-11-18T06:58:38;97668.47;;;6.68;100.00
12801;BME280;6464;42.494;27.470;2023-11-18T07:01:06;97683.28;;;6.85;100.00
12801;BME280;6464;42.494;27.470;2023-11-18T07:03:35;97780.84;;;7.40;100.00
12801;BME280;6464;42.494;27.470;2023-11-18T07:06:07;97786.09;;;7.40;100.00
12801;BME280;6464;42.494;27.470;2023-11-18T07:08:49;97643.53;;;6.26;100.00
12801;BME280;6464;42.494;27.470;2023-11-18T07:11:21;97707.88;;;6.82;100.00
12801;BME280;6464;42.494;27.470;2023-11-18T07:14:15;97665.53;;;6.74;100.00
12801;BME280;6464;42.494;27.470;2023-11-18T07:17:03;97857.19;;;7.67;100.00
12801;BME280;6464;42.494;27.470;2023-11-18T07:19:46;97690.81;;;6.58;100.00
12801;BME280;6464;42.494;27.470;2023-11-18T07:22:26;97648.47;;;6.15;100.00
12801;BME280;6464;42.494;27.470;2023-11-18T07:24:57;97829.50;;;7.29;100.00
12801;BME280;6464;42.494;27.470;2023-11-18T07:27:41;97816.00;;;7.19;100.00
12801;BME280;6464;42.494;27.470;2023-11-18T07:30:31;97873.53;;;7.22;100.00
12801;BME280;6464;42.494;27.470;2023-11-18T07:33:19;97837.88;;;6.66;100.00
12801;BME280;6464;42.494;27.470;2023-11-18T07:35:55;97861.97;;;6.91;100.00
12801;BME280;6464;42.494;27.470;2023-11-18T07:38:44;97987.78;;;7.26;100.00
12801;BME280;6464;42.494;27.470;2023-11-18T07:41:31;97817.88;;;6.29;100.00
12801;BME280;6464;42.494;27.470;2023-11-18T07:44:16;97899.34;;;6.76;100.00
12801;BME280;6464;42.494;27.470;2023-11-18T07:46:56;97816.63;;;6.00;100.00
12801;BME280;6464;42.494;27.470;2023-11-18T07:49:42;97893.72;;;6.48;100.00
12801;BME280;6464;42.494;27.470;2023-11-18T07:52:13;97912.13;;;6.27;100.00
12801;BME280;6464;42.494;27.470;2023-11-18T07:54:59;97927.75;;;6.48;100.00
12801;BME280;6464;42.494;27.470;2023-11-18T07:57:34;98083.22;;;7.39;100.00
12801;BME280;6464;42.494;27.470;2023-11-18T08:00:27;97909.84;;;6.01;100.00
12801;BME280;6464;42.494;27.470;2023-11-18T08:03:10;97942.41;;;6.52;100.00
12801;BME280;6464;42.494;27.470;2023-11-18T08:05:42;98065.16;;;7.16;100.00
12801;BME280;6464;42.494;27.470;2023-11-18T08:08:20;98008.66;;;6.73;100.00
12801;BME280;6464;42.494;27.470;2023-11-18T08:10:50;98036.81;;;6.86;100.00
12801;BME280;6464;42.494;27.470;2023-11-18T08:13:20;98044.88;;;7.01;100.00
12801;BME280;6464;42.494;27.470;2023-11-18T08:15:53;98038.94;;;6.78;100.00
12801;BME280;6464;42.494;27.470;2023-11-18T08:18:23;97937.72;;;6.02;100.00
12801;BME280;6464;42.494;27.470;2023-11-18T08:20:53;98096.44;;;7.00;100.00
12801;BME280;6464;42.494;27.470;2023-11-18T08:23:24;98193.63;;;7.33;100.00
12801;BME280;6464;42.494;27.470;2023-11-18T08:25:54;98247.63;;;7.37;100.00
12801;BME280;6464;42.494;27.470;2023-11-18T08:28:22;98010.78;;;5.84;100.00
12801;BME280;6464;42.494;27.470;2023-11-18T08:30:51;98275.69;;;7.35;100.00
12801;BME280;6464;42.494;27.470;2023-11-18T08:33:20;98258.03;;;7.00;100.00
12801;BME280;6464;42.494;27.470;2023-11-18T08:35:51;98254.88;;;6.71;100.00
12801;BME280;6464;42.494;27.470;2023-11-18T08:38:18;98361.56;;;7.30;100.00
12801;BME280;6464;42.494;27.470;2023-11-18T08:40:45;98272.91;;;6.58;100.00
12801;BME280;6464;42.494;27.470;2023-11-18T08:43:13;98410.56;;;7.28;100.00
12801;BME280;6464;42.494;27.470;2023-11-18T08:45:41;98321.78;;;6.58;100.00
12801;BME280;6464;42.494;27.470;2023-11-18T08:48:08;98315.75;;;6.56;100.00
12801;BME280;6464;42.494;27.470;2023-11-18T08:50:37;98455.69;;;7.14;100.00
12801;BME280;6464;42.494;27.470;2023-11-18T08:53:07;98354.59;;;6.66;100.00
12801;BME280;6464;42.494;27.470;2023-11-18T08:55:35;98279.47;;;6.03;100.00
12801;BME280;6464;42.494;27.470;2023-11-18T08:58:16;98308.50;;;5.97;100.00
12801;BME280;6464;42.494;27.470;2023-11-18T09:00:47;98464.72;;;7.07;100.00
12801;BME280;6464;42.494;27.470;2023-11-18T09:03:20;98504.72;;;7.12;100.00
12801;BME280;6464;42.494;27.470;2023-11-18T09:05:55;98539.09;;;7.27;100.00
12801;BME280;6464;42.494;27.470;2023-11-18T09:08:31;98512.38;;;6.95;100.00
12801;BME280;6464;42.494;27.470;2023-11-18T09:11:01;98488.69;;;6.53;100.00
12801;BME280;6464;42.494;27.470;2023-11-18T09:13:29;98484.47;;;6.72;100.00
12801;BME280;6464;42.494;27.470;2023-11-18T09:15:57;98572.03;;;6.88;100.00
12801;BME280;6464;42.494;27.470;2023-11-18T09:18:25;98612.00;;;7.17;100.00
12801;BME280;6464;42.494;27.470;2023-11-18T09:20:53;98625.22;;;7.14;100.00
12801;BME280;6464;42.494;27.470;2023-11-18T09:23:21;98539.22;;;6.55;100.00
12801;BME280;6464;42.494;27.470;2023-11-18T09:25:52;98578.97;;;6.89;100.00
12801;BME280;6464;42.494;27.470;2023-11-18T09:28:20;98504.09;;;6.37;100.00
12801;BME280;6464;42.494;27.470;2023-11-18T09:30:48;98609.72;;;6.84;100.00
12801;BME280;6464;42.494;27.470;2023-11-18T09:33:20;98516.59;;;6.54;100.00
12801;BME280;6464;42.494;27.470;2023-11-18T09:35:55;98529.72;;;6.52;100.00
12801;BME280;6464;42.494;27.470;2023-11-18T09:38:25;98616.50;;;7.13;100.00
12801;BME280;6464;42.494;27.470;2023-11-18T09:40:55;98500.97;;;6.51;100.00
12801;BME280;6464;42.494;27.470;2023-11-18T09:43:24;98601.09;;;7.28;100.00
12801;BME280;6464;42.494;27.470;2023-11-18T09:45:54;98607.50;;;7.42;100.00
12801;BME280;6464;42.494;27.470;2023-11-18T09:48:22;98486.00;;;6.78;100.00
12801;BME280;6464;42.494;27.470;2023-11-18T09:50:52;98502.53;;;7.02;100.00
12801;BME280;6464;42.494;27.470;2023-11-18T09:53:20;98614.22;;;7.71;100.00
12801;BME280;6464;42.494;27.470;2023-11-18T09:55:59;98450.34;;;6.95;100.00
12801;BME280;6464;42.494;27.470;2023-11-18T09:58:40;98591.50;;;7.48;100.00
12801;BME280;6464;42.494;27.470;2023-11-18T10:01:10;98646.28;;;7.78;100.00
12801;BME280;6464;42.494;27.470;2023-11-18T10:03:40;98649.59;;;7.83;100.00
12801;BME280;6464;42.494;27.470;2023-11-18T10:06:12;98673.81;;;7.90;100.00
12801;BME280;6464;42.494;27.470;2023-11-18T10:08:40;98628.84;;;7.77;100.00
12801;BME280;6464;42.494;27.470;2023-11-18T10:11:13;98543.84;;;7.39;100.00
12801;BME280;6464;42.494;27.470;2023-11-18T10:13:40;98701.59;;;8.17;100.00
12801;BME280;6464;42.494;27.470;2023-11-18T10:16:10;98684.47;;;8.07;100.00
12801;BME280;6464;42.494;27.470;2023-11-18T10:18:39;98683.94;;;7.77;100.00
12801;BME280;6464;42.494;27.470;2023-11-18T10:21:14;98743.81;;;8.33;100.00
12801;BME280;6464;42.494;27.470;2023-11-18T10:23:58;98754.31;;;8.33;100.00
12801;BME280;6464;42.494;27.470;2023-11-18T10:26:28;98676.56;;;7.87;100.00
12801;BME280;6464;42.494;27.470;2023-11-18T10:29:02;98690.34;;;7.70;100.00
12801;BME280;6464;42.494;27.470;2023-11-18T10:31:31;98827.28;;;8.25;100.00
12801;BME280;6464;42.494;27.470;2023-11-18T10:34:00;98732.19;;;7.73;100.00
12801;BME280;6464;42.494;27.470;2023-11-18T10:36:29;98828.81;;;8.31;100.00
12801;BME280;6464;42.494;27.470;2023-11-18T10:38:58;98751.38;;;7.75;100.00
12801;BME280;6464;42.494;27.470;2023-11-18T10:41:41;98747.03;;;7.74;100.00
12801;BME280;6464;42.494;27.470;2023-11-18T10:44:09;98824.75;;;8.00;100.00
12801;BME280;6464;42.494;27.470;2023-11-18T10:46:39;98764.94;;;7.63;100.00
12801;BME280;6464;42.494;27.470;2023-11-18T10:49:07;98773.56;;;7.66;100.00
12801;BME280;6464;42.494;27.470;2023-11-18T10:51:35;98751.63;;;7.69;100.00
12801;BME280;6464;42.494;27.470;2023-11-18T10:54:05;98868.28;;;8.29;100.00
12801;BME280;6464;42.494;27.470;2023-11-18T10:56:47;98821.91;;;8.06;100.00
12801;BME280;6464;42.494;27.470;2023-11-18T10:59:15;98777.66;;;7.73;100.00
12801;BME280;6464;42.494;27.470;2023-11-18T11:01:44;98876.34;;;8.24;100.00
12801;BME280;6464;42.494;27.470;2023-11-18T11:04:14;98763.00;;;7.68;100.00
12801;BME280;6464;42.494;27.470;2023-11-18T11:06:43;98826.63;;;7.96;100.00
12801;BME280;6464;42.494;27.470;2023-11-18T11:09:17;98688.34;;;7.31;100.00
12801;BME280;6464;42.494;27.470;2023-11-18T11:11:49;98758.50;;;7.71;100.00
12801;BME280;6464;42.494;27.470;2023-11-18T11:14:16;98836.75;;;8.29;100.00
12801;BME280;6464;42.494;27.470;2023-11-18T11:16:47;98708.25;;;7.59;100.00
12801;BME280;6464;42.494;27.470;2023-11-18T11:19:24;98756.22;;;7.62;100.00
12801;BME280;6464;42.494;27.470;2023-11-18T11:22:01;98792.66;;;8.15;100.00
12801;BME280;6464;42.494;27.470;2023-11-18T11:24:51;98774.72;;;8.05;100.00
12801;BME280;6464;42.494;27.470;2023-11-18T11:27:26;98782.09;;;7.95;100.00
12801;BME280;6464;42.494;27.470;2023-11-18T11:30:08;98662.25;;;7.28;100.00
12801;BME280;6464;42.494;27.470;2023-11-18T11:32:39;98658.84;;;7.26;100.00
12801;BME280;6464;42.494;27.470;2023-11-18T11:35:18;98635.63;;;7.15;100.00
12801;BME280;6464;42.494;27.470;2023-11-18T11:37:47;98603.38;;;6.91;100.00
12801;BME280;6464;42.494;27.470;2023-11-18T11:40:14;98631.38;;;7.13;100.00
12801;BME280;6464;42.494;27.470;2023-11-18T11:42:50;98721.09;;;7.66;100.00
12801;BME280;6464;42.494;27.470;2023-11-18T11:45:22;98670.25;;;7.47;100.00
12801;BME280;6464;42.494;27.470;2023-11-18T11:47:54;98598.56;;;7.03;100.00
12801;BME280;6464;42.494;27.470;2023-11-18T11:50:47;98647.84;;;7.38;100.00
12801;BME280;6464;42.494;27.470;2023-11-18T11:53:20;98594.00;;;7.08;100.00
12801;BME280;6464;42.494;27.470;2023-11-18T11:55:49;98552.63;;;7.16;100.00
12801;BME280;6464;42.494;27.470;2023-11-18T11:58:28;98605.06;;;7.38;100.00
12801;BME280;6464;42.494;27.470;2023-11-18T12:00:58;98555.13;;;7.19;100.00
12801;BME280;6464;42.494;27.470;2023-11-18T12:03:26;98566.91;;;7.31;100.00
12801;BME280;6464;42.494;27.470;2023-11-18T12:06:01;98537.63;;;7.19;100.00
12801;BME280;6464;42.494;27.470;2023-11-18T12:08:35;98623.09;;;7.67;100.00
12801;BME280;6464;42.494;27.470;2023-11-18T12:11:04;98521.72;;;7.02;100.00
12801;BME280;6464;42.494;27.470;2023-11-18T12:13:37;98614.72;;;7.59;100.00
12801;BME280;6464;42.494;27.470;2023-11-18T12:16:06;98592.31;;;7.51;100.00
12801;BME280;6464;42.494;27.470;2023-11-18T12:18:35;98504.34;;;7.00;100.00
12801;BME280;6464;42.494;27.470;2023-11-18T12:21:03;98497.50;;;6.95;100.00
12801;BME280;6464;42.494;27.470;2023-11-18T12:23:30;98488.63;;;7.00;100.00
12801;BME280;6464;42.494;27.470;2023-11-18T12:25:59;98471.31;;;6.95;100.00
12801;BME280;6464;42.494;27.470;2023-11-18T12:28:29;98478.03;;;7.03;100.00
12801;BME280;6464;42.494;27.470;2023-11-18T12:31:02;98476.06;;;7.08;100.00
12801;BME280;6464;42.494;27.470;2023-11-18T12:34:00;98571.69;;;7.63;100.00
12801;BME280;6464;42.494;27.470;2023-11-18T12:36:55;98473.69;;;7.02;100.00
12801;BME280;6464;42.494;27.470;2023-11-18T12:42:59;98590.66;;;7.70;100.00
12801;BME280;6464;42.494;27.470;2023-11-18T12:45:42;98594.81;;;7.76;100.00
12801;BME280;6464;42.494;27.470;2023-11-18T12:48:14;98494.72;;;7.22;100.00
12801;BME280;6464;42.494;27.470;2023-11-18T12:50:41;98448.81;;;7.12;100.00
12801;BME280;6464;42.494;27.470;2023-11-18T12:53:11;98571.09;;;7.57;100.00
12801;BME280;6464;42.494;27.470;2023-11-18T12:55:40;98636.63;;;8.01;100.00
12801;BME280;6464;42.494;27.470;2023-11-18T12:58:08;98566.75;;;7.56;100.00
12801;BME280;6464;42.494;27.470;2023-11-18T13:00:39;98584.47;;;7.51;100.00
12801;BME280;6464;42.494;27.470;2023-11-18T13:03:10;98626.25;;;7.55;100.00
12801;BME280;6464;42.494;27.470;2023-11-18T13:05:40;98622.31;;;7.43;100.00
12801;BME280;6464;42.494;27.470;2023-11-18T13:08:08;98658.56;;;7.56;100.00
12801;BME280;6464;42.494;27.470;2023-11-18T13:10:35;98760.81;;;8.03;100.00
12801;BME280;6464;42.494;27.470;2023-11-18T13:13:04;98618.03;;;7.19;100.00
12801;BME280;6464;42.494;27.470;2023-11-18T13:15:34;98693.88;;;7.47;100.00
12801;BME280;6464;42.494;27.470;2023-11-18T13:18:02;98801.94;;;8.02;100.00
12801;BME280;6464;42.494;27.470;2023-11-18T13:20:33;98756.53;;;7.55;100.00
12801;BME280;6464;42.494;27.470;2023-11-18T13:23:01;98744.97;;;7.59;100.00
12801;BME280;6464;42.494;27.470;2023-11-18T13:25:34;98739.47;;;7.43;100.00
12801;BME280;6464;42.494;27.470;2023-11-18T13:28:03;98741.34;;;7.39;100.00
12801;BME280;6464;42.494;27.470;2023-11-18T13:30:30;98732.59;;;7.40;100.00
12801;BME280;6464;42.494;27.470;2023-11-18T13:32:57;98736.78;;;7.44;100.00
12801;BME280;6464;42.494;27.470;2023-11-18T13:35:24;98744.13;;;7.35;100.00
12801;BME280;6464;42.494;27.470;2023-11-18T13:37:53;98731.78;;;7.38;100.00
12801;BME280;6464;42.494;27.470;2023-11-18T13:40:21;98752.75;;;7.38;100.00
12801;BME280;6464;42.494;27.470;2023-11-18T13:43:01;98750.69;;;7.46;100.00
12801;BME280;6464;42.494;27.470;2023-11-18T13:45:28;98742.09;;;7.43;100.00
12801;BME280;6464;42.494;27.470;2023-11-18T13:47:56;98752.88;;;7.35;100.00
12801;BME280;6464;42.494;27.470;2023-11-18T13:50:23;98775.44;;;7.39;100.00
12801;BME280;6464;42.494;27.470;2023-11-18T13:52:50;98774.13;;;7.28;100.00
12801;BME280;6464;42.494;27.470;2023-11-18T13:55:20;98774.13;;;7.51;100.00
12801;BME280;6464;42.494;27.470;2023-11-18T13:57:53;98850.25;;;7.96;100.00
12801;BME280;6464;42.494;27.470;2023-11-18T14:00:23;98846.84;;;7.94;100.00
12801;BME280;6464;42.494;27.470;2023-11-18T14:02:53;98839.84;;;7.95;100.00
12801;BME280;6464;42.494;27.470;2023-11-18T14:05:22;98744.94;;;7.37;100.00
12801;BME280;6464;42.494;27.470;2023-11-18T14:07:49;98747.34;;;7.43;100.00
12801;BME280;6464;42.494;27.470;2023-11-18T14:10:16;98742.03;;;7.44;100.00
12801;BME280;6464;42.494;27.470;2023-11-18T14:13:01;98747.25;;;7.44;100.00
12801;BME280;6464;42.494;27.470;2023-11-18T14:15:29;98761.81;;;7.53;100.00
12801;BME280;6464;42.494;27.470;2023-11-18T14:17:57;98723.69;;;7.21;100.00
12801;BME280;6464;42.494;27.470;2023-11-18T14:20:24;98714.66;;;7.28;100.00
12801;BME280;6464;42.494;27.470;2023-11-18T14:22:51;98720.25;;;7.19;100.00
12801;BME280;6464;42.494;27.470;2023-11-18T14:25:19;98740.66;;;7.34;100.00
12801;BME280;6464;42.494;27.470;2023-11-18T14:27:49;98825.84;;;7.94;100.00
12801;BME280;6464;42.494;27.470;2023-11-18T14:30:17;98742.84;;;7.46;100.00
12801;BME280;6464;42.494;27.470;2023-11-18T14:32:45;98715.81;;;7.21;100.00
12801;BME280;6464;42.494;27.470;2023-11-18T14:35:13;98758.78;;;7.64;100.00
12801;BME280;6464;42.494;27.470;2023-11-18T14:37:42;98795.28;;;7.93;100.00
12801;BME280;6464;42.494;27.470;2023-11-18T14:40:11;98725.00;;;7.33;100.00
12801;BME280;6464;42.494;27.470;2023-11-18T14:42:41;98727.63;;;7.33;100.00
12801;BME280;6464;42.494;27.470;2023-11-18T14:45:09;98819.97;;;7.88;100.00
12801;BME280;6464;42.494;27.470;2023-11-18T14:47:39;98814.72;;;7.88;100.00
12801;BME280;6464;42.494;27.470;2023-11-18T14:50:06;98746.66;;;7.38;100.00
12801;BME280;6464;42.494;27.470;2023-11-18T14:52:43;98708.81;;;7.21;100.00
12801;BME280;6464;42.494;27.470;2023-11-18T14:55:10;98790.22;;;7.65;100.00
12801;BME280;6464;42.494;27.470;2023-11-18T14:57:39;98776.59;;;7.56;100.00
12801;BME280;6464;42.494;27.470;2023-11-18T15:00:07;98823.66;;;7.84;100.00
12801;BME280;6464;42.494;27.470;2023-11-18T15:02:35;98727.00;;;7.26;100.00
12801;BME280;6464;42.494;27.470;2023-11-18T15:05:04;98666.69;;;7.03;100.00
12801;BME280;6464;42.494;27.470;2023-11-18T15:07:34;98805.44;;;7.79;100.00
12801;BME280;6464;42.494;27.470;2023-11-18T15:10:01;98812.28;;;7.83;100.00
12801;BME280;6464;42.494;27.470;2023-11-18T15:12:29;98809.72;;;7.82;100.00
12801;BME280;6464;42.494;27.470;2023-11-18T15:14:55;98709.59;;;7.24;100.00
12801;BME280;6464;42.494;27.470;2023-11-18T15:17:25;98806.75;;;7.67;100.00
12801;BME280;6464;42.494;27.470;2023-11-18T15:19:52;98743.09;;;7.39;100.00
12801;BME280;6464;42.494;27.470;2023-11-18T15:22:22;98729.81;;;7.20;100.00
12801;BME280;6464;42.494;27.470;2023-11-18T15:24:49;98755.88;;;7.25;100.00
12801;BME280;6464;42.494;27.470;2023-11-18T15:27:16;98734.66;;;7.07;100.00
12801;BME280;6464;42.494;27.470;2023-11-18T15:29:44;98818.94;;;7.68;100.00
12801;BME280;6464;42.494;27.470;2023-11-18T15:32:16;98762.19;;;7.19;100.00
12801;BME280;6464;42.494;27.470;2023-11-18T15:34:43;98791.03;;;7.19;100.00
12801;BME280;6464;42.494;27.470;2023-11-18T15:37:11;98908.41;;;7.86;100.00
12801;BME280;6464;42.494;27.470;2023-11-18T15:39:39;98831.19;;;7.44;100.00
12801;BME280;6464;42.494;27.470;2023-11-18T15:42:06;98925.16;;;7.82;100.00
12801;BME280;6464;42.494;27.470;2023-11-18T15:44:35;98834.66;;;7.20;100.00
12801;BME280;6464;42.494;27.470;2023-11-18T15:47:04;98824.72;;;7.05;100.00
12801;BME280;6464;42.494;27.470;2023-11-18T15:49:31;98951.63;;;7.76;100.00
12801;BME280;6464;42.494;27.470;2023-11-18T15:51:58;98976.34;;;7.68;100.00
12801;BME280;6464;42.494;27.470;2023-11-18T15:54:25;98948.94;;;7.52;100.00
12801;BME280;6464;42.494;27.470;2023-11-18T15:56:54;98863.75;;;6.87;100.00
12801;BME280;6464;42.494;27.470;2023-11-18T15:59:21;98974.41;;;7.48;100.00
12801;BME280;6464;42.494;27.470;2023-11-18T16:01:50;98971.94;;;7.44;100.00
12801;BME280;6464;42.494;27.470;2023-11-18T16:04:17;98930.53;;;7.02;100.00
12801;BME280;6464;42.494;27.470;2023-11-18T16:06:45;98946.75;;;7.13;100.00
12801;BME280;6464;42.494;27.470;2023-11-18T16:09:11;98941.59;;;7.37;100.00
12801;BME280;6464;42.494;27.470;2023-11-18T16:11:38;98939.94;;;7.34;100.00